Time;durP1;ratioP1;P1;durP2;ratioP2;P2;SDS_P1;SDS_P2;PMS_P1;PMS_P2;Temp;Humidity;BMP_temperature;BMP_pressure;BME280_temperature;BME280_humidity;BME280_pressure;Samples;Min_cycle;Max_cycle;Signal;HPM_P1;HPM_P2
2023/05/30 00:01:57;;;;;;;6.15;3.30;;;15.20;99.90;;;;;;2603290;54;20038;31
2023/05/30 00:04:39;;;;;;;7.55;3.00;;;15.20;99.90;;;;;;2602748;54;20034;31
2023/05/30 00:07:18;;;;;;;7.53;3.20;;;15.10;99.90;;;;;;2621904;46;20051;31
2023/05/30 00:12:49;;;;;;;8.90;3.05;;;15.00;99.90;;;;;;2701830;39;20589;31
2023/05/30 00:15:28;;;;;;;8.40;3.25;;;15.00;99.90;;;;;;2772563;31;25074;31
2023/05/30 00:18:05;;;;;;;7.93;3.27;;;15.00;99.90;;;;;;2621069;46;20046;31
2023/05/30 00:20:49;;;;;;;8.15;3.28;;;14.90;99.90;;;;;;2602342;54;20034;31
2023/05/30 00:23:30;;;;;;;7.63;3.60;;;14.90;99.90;;;;;;2701173;39;20417;31
2023/05/30 00:26:14;;;;;;;12.03;3.43;;;14.80;99.90;;;;;;2602578;54;19942;31
2023/05/30 00:28:59;;;;;;;5.25;2.83;;;14.80;99.90;;;;;;2603296;54;20301;31
2023/05/30 00:31:39;;;;;;;6.45;3.17;;;14.80;99.90;;;;;;2621479;46;20033;31
2023/05/30 00:34:20;;;;;;;7.63;2.80;;;14.80;99.90;;;;;;2603363;54;20030;31
2023/05/30 00:37:05;;;;;;;6.70;3.28;;;14.80;99.90;;;;;;2603172;54;21546;31
2023/05/30 00:39:42;;;;;;;6.57;3.03;;;14.80;99.90;;;;;;2603259;54;20782;31
2023/05/30 00:42:17;;;;;;;7.28;2.85;;;14.80;99.90;;;;;;2621665;46;20794;31
2023/05/30 00:47:47;;;;;;;7.82;3.13;;;14.80;99.90;;;;;;2603241;54;20026;31
2023/05/30 00:50:32;;;;;;;11.60;3.10;;;14.80;99.90;;;;;;2603314;54;20032;31
2023/05/30 00:53:19;;;;;;;8.95;2.85;;;14.80;99.90;;;;;;2603258;54;20054;31
2023/05/30 00:55:55;;;;;;;9.77;2.80;;;14.80;99.90;;;;;;2701056;39;21594;31
2023/05/30 00:58:31;;;;;;;6.28;3.05;;;14.80;99.90;;;;;;2621686;46;20044;31
2023/05/30 01:01:06;;;;;;;5.10;2.47;;;14.80;99.90;;;;;;2620942;46;20855;31
2023/05/30 01:03:42;;;;;;;10.13;2.38;;;14.80;99.90;;;;;;2602990;54;22503;31
2023/05/30 01:06:20;;;;;;;7.35;3.00;;;14.80;99.90;;;;;;2603107;54;20031;31
2023/05/30 01:09:16;;;;;;;6.68;2.72;;;14.80;99.90;;;;;;2621450;46;20316;31
2023/05/30 01:12:01;;;;;;;8.55;2.88;;;14.80;99.90;;;;;;2621408;46;20026;31
2023/05/30 01:14:47;;;;;;;8.75;2.65;;;14.80;99.90;;;;;;2602929;54;20883;31
2023/05/30 01:17:29;;;;;;;7.80;3.07;;;14.80;99.90;;;;;;2603344;54;20029;31
2023/05/30 01:20:10;;;;;;;7.15;2.92;;;14.70;99.90;;;;;;2603400;54;20030;31
2023/05/30 01:23:26;;;;;;;7.38;2.78;;;14.70;99.90;;;;;;2603063;54;20027;31
2023/05/30 01:26:31;;;;;;;5.47;2.43;;;14.60;99.90;;;;;;2621278;46;20829;31
2023/05/30 01:32:19;;;;;;;11.55;2.60;;;14.50;99.90;;;;;;2703280;38;20554;31
2023/05/30 01:35:03;;;;;;;6.57;2.30;;;14.40;99.90;;;;;;2605019;54;20866;31
2023/05/30 01:37:52;;;;;;;5.25;2.65;;;14.50;99.90;;;;;;2604846;54;20081;31
2023/05/30 01:40:31;;;;;;;8.73;2.60;;;14.40;99.90;;;;;;2604862;54;20697;31
2023/05/30 01:43:17;;;;;;;7.72;2.75;;;14.30;99.90;;;;;;2605078;54;20042;31
2023/05/30 01:46:01;;;;;;;11.52;3.05;;;14.30;99.90;;;;;;2622918;46;20970;31
2023/05/30 01:48:53;;;;;;;6.40;2.90;;;14.30;99.90;;;;;;2604689;54;20057;31
2023/05/30 01:51:40;;;;;;;9.43;2.88;;;14.20;99.90;;;;;;2604778;54;20030;31
2023/05/30 01:56:50;;;;;;;9.32;3.75;;;14.10;99.90;;;;;;2703268;39;20501;31
2023/05/30 01:59:31;;;;;;;10.05;3.45;;;14.10;99.90;;;;;;2604754;54;20034;31
2023/05/30 02:02:14;;;;;;;9.30;2.92;;;14.10;99.90;;;;;;2604930;54;20766;31
2023/05/30 02:05:00;;;;;;;;;;;14.00;99.90;;;;;;2605145;54;20030;31
2023/05/30 02:07:38;;;;;;;11.25;3.53;;;13.90;99.90;;;;;;2623210;46;19934;31
2023/05/30 02:10:18;;;;;;;7.57;2.40;;;13.90;99.90;;;;;;2604763;54;20030;31
2023/05/30 02:13:25;;;;;;;5.97;2.75;;;13.90;99.90;;;;;;2604570;54;20078;31
2023/05/30 02:16:08;;;;;;;;;;;13.90;99.90;;;;;;2605175;54;20914;31
2023/05/30 02:18:48;;;;;;;13.40;3.45;;;13.80;99.90;;;;;;2623346;46;19938;31
2023/05/30 02:24:17;;;;;;;7.90;2.70;;;13.80;99.90;;;;;;2775015;31;21762;31
2023/05/30 02:26:56;;;;;;;12.20;3.40;;;13.80;99.90;;;;;;2626051;46;20984;31
2023/05/30 02:29:32;;;;;;;11.20;2.70;;;13.70;99.90;;;;;;2622362;46;20050;31
2023/05/30 02:32:15;;;;;;;7.00;2.88;;;13.70;99.90;;;;;;2604725;54;20760;31
2023/05/30 02:34:55;;;;;;;;;;;13.70;99.90;;;;;;2608761;46;20026;31
2023/05/30 02:37:40;;;;;;;8.43;3.50;;;13.70;99.90;;;;;;2623094;46;19934;31
2023/05/30 02:40:22;;;;;;;8.77;3.00;;;13.70;99.90;;;;;;2604712;54;20859;31
2023/05/30 02:43:05;;;;;;;9.60;2.95;;;13.60;99.90;;;;;;2622107;46;20913;31
2023/05/30 02:48:34;;;;;;;8.75;2.50;;;13.60;99.90;;;;;;2602882;54;21247;31
2023/05/30 02:51:17;;;;;;;8.17;3.00;;;13.50;99.90;;;;;;2602612;54;20030;31
2023/05/30 02:53:56;;;;;;;6.87;2.93;;;13.50;99.90;;;;;;2622299;46;20052;31
2023/05/30 02:59:45;;;;;;;9.32;3.60;;;13.40;99.90;;;;;;2603703;54;20549;31
2023/05/30 03:02:25;;;;;;;8.75;3.00;;;13.30;99.90;;;;;;2603534;54;20022;31
2023/05/30 03:05:03;;;;;;;9.05;3.00;;;13.20;99.90;;;;;;2602741;54;20027;31
2023/05/30 03:07:51;;;;;;;8.05;2.65;;;13.20;99.90;;;;;;2602823;54;20053;31
2023/05/30 03:10:34;;;;;;;8.50;3.63;;;13.20;99.90;;;;;;2603555;54;20054;31
2023/05/30 03:15:48;;;;;;;6.13;2.90;;;13.10;99.90;;;;;;2701571;39;21368;31
2023/05/30 03:18:27;;;;;;;7.97;2.47;;;13.10;99.90;;;;;;2602838;54;20104;31
2023/05/30 03:21:09;;;;;;;8.00;3.00;;;13.00;99.90;;;;;;2621628;46;20858;31
2023/05/30 03:23:51;;;;;;;6.65;2.53;;;13.00;99.90;;;;;;2602652;54;20030;31
2023/05/30 03:26:33;;;;;;;11.15;3.00;;;13.10;99.90;;;;;;2606936;46;19994;31
2023/05/30 03:29:12;;;;;;;8.07;2.88;;;13.10;99.90;;;;;;2602583;54;25037;31
2023/05/30 03:32:08;;;;;;;5.97;2.60;;;13.10;99.90;;;;;;2602818;54;20034;31
2023/05/30 03:37:20;;;;;;;9.35;2.83;;;13.30;99.90;;;;;;2602752;54;20056;31
2023/05/30 03:40:05;;;;;;;10.07;3.28;;;13.40;99.90;;;;;;2603702;54;20056;31
2023/05/30 03:42:48;;;;;;;11.27;3.00;;;13.40;99.90;;;;;;2622153;46;20026;31
2023/05/30 03:45:28;;;;;;;8.95;3.20;;;13.60;99.90;;;;;;2706464;39;20560;31
2023/05/30 03:48:22;;;;;;;7.85;3.17;;;13.70;99.90;;;;;;2603360;54;20042;31
2023/05/30 03:51:04;;;;;;;7.30;2.80;;;13.90;99.90;;;;;;2621889;46;20844;31
2023/05/30 03:53:54;;;;;;;9.20;3.35;;;14.00;99.90;;;;;;2621962;46;20036;31
2023/05/30 03:56:40;;;;;;;12.50;3.00;;;14.20;99.90;;;;;;2603249;54;20875;31
2023/05/30 03:59:19;;;;;;;9.65;2.70;;;14.40;99.90;;;;;;2603321;54;20250;31
2023/05/30 04:01:56;;;;;;;10.87;3.13;;;14.60;99.90;;;;;;2603407;54;20027;31
2023/05/30 04:04:41;;;;;;;12.27;2.93;;;14.70;99.90;;;;;;2603438;54;20238;31
2023/05/30 04:07:18;;;;;;;8.77;2.95;;;14.80;99.90;;;;;;2621647;46;20621;31
2023/05/30 04:10:00;;;;;;;8.40;2.95;;;15.00;99.90;;;;;;2602928;54;20046;31
2023/05/30 04:12:41;;;;;;;11.32;3.42;;;15.10;99.90;;;;;;2607227;46;20630;31
2023/05/30 04:15:21;;;;;;;11.35;4.03;;;15.30;99.90;;;;;;2603228;54;20123;31
2023/05/30 04:18:11;;;;;;;8.40;3.22;;;15.50;99.90;;;;;;2603328;54;20116;31
2023/05/30 04:21:00;;;;;;;7.63;3.00;;;15.70;99.90;;;;;;2603337;54;20869;31
2023/05/30 04:23:51;;;;;;;13.93;3.40;;;15.90;99.90;;;;;;2602864;54;20018;31
2023/05/30 04:26:48;;;;;;;14.10;3.30;;;16.00;99.90;;;;;;2705264;39;20465;31
2023/05/30 04:29:27;;;;;;;8.63;2.50;;;16.10;99.90;;;;;;2621381;46;20760;31
2023/05/30 04:32:21;;;;;;;10.07;3.10;;;16.40;99.90;;;;;;2603233;54;20049;31
2023/05/30 04:35:02;;;;;;;8.23;2.83;;;16.60;99.90;;;;;;2621633;46;20027;31
2023/05/30 04:37:56;;;;;;;10.40;3.00;;;16.80;99.90;;;;;;2603200;54;20515;31
2023/05/30 04:40:37;;;;;;;7.93;2.53;;;17.00;99.90;;;;;;2603090;54;20033;31
2023/05/30 04:43:22;;;;;;;11.35;3.30;;;17.20;99.90;;;;;;2621670;46;20031;31
2023/05/30 04:46:13;;;;;;;9.98;2.83;;;17.40;99.90;;;;;;2603189;54;20758;31
2023/05/30 04:49:03;;;;;;;10.88;3.25;;;17.70;99.90;;;;;;2603134;54;19988;31
2023/05/30 04:51:46;;;;;;;12.25;3.50;;;17.90;99.90;;;;;;2603288;54;20031;31
2023/05/30 04:54:27;;;;;;;10.15;2.92;;;18.00;99.90;;;;;;2602959;54;20973;31
2023/05/30 04:57:13;;;;;;;9.57;3.22;;;18.20;99.90;;;;;;2603189;54;20871;31
2023/05/30 04:59:55;;;;;;;7.72;2.97;;;18.20;99.90;;;;;;2603073;54;20863;31
2023/05/30 05:02:46;;;;;;;11.70;4.10;;;18.40;99.90;;;;;;2603425;54;20031;31
2023/05/30 05:05:23;;;;;;;9.75;2.85;;;18.40;99.90;;;;;;2603006;54;20143;31
2023/05/30 05:08:04;;;;;;;11.65;3.40;;;18.50;99.90;;;;;;2621691;46;20039;31
2023/05/30 05:11:04;;;;;;;10.77;2.92;;;18.60;99.90;;;;;;2701765;39;21468;31
2023/05/30 05:13:52;;;;;;;11.40;3.40;;;18.80;99.90;;;;;;2701612;39;21642;31
2023/05/30 05:19:15;;;;;;;15.25;2.90;;;19.10;99.90;;;;;;2603300;54;20046;31
2023/05/30 05:22:14;;;;;;;9.95;3.25;;;19.30;99.90;;;;;;2621502;46;20030;31
2023/05/30 05:27:43;;;;;;;6.38;2.35;;;19.70;99.90;;;;;;2603229;54;20144;31
2023/05/30 05:30:33;;;;;;;13.07;3.03;;;19.80;99.90;;;;;;2602861;54;20851;31
2023/05/30 05:33:15;;;;;;;6.95;2.60;;;20.00;99.90;;;;;;2621562;46;20030;31
2023/05/30 05:38:45;;;;;;;9.93;2.97;;;20.30;99.90;;;;;;2603163;54;20081;31
2023/05/30 05:41:34;;;;;;;16.45;2.92;;;20.40;99.90;;;;;;2602253;54;20046;31
2023/05/30 05:44:27;;;;;;;24.52;3.30;;;20.60;99.90;;;;;;2621040;47;20026;31
2023/05/30 05:47:13;;;;;;;8.20;2.70;;;20.80;99.90;;;;;;2603119;54;20045;31
2023/05/30 05:49:57;;;;;;;10.68;3.00;;;20.80;99.90;;;;;;2603172;54;20026;31
2023/05/30 05:52:42;;;;;;;24.85;4.25;;;20.90;99.90;;;;;;2603293;54;20026;31
2023/05/30 05:55:25;;;;;;;11.55;2.65;;;20.90;99.90;;;;;;2603026;54;20022;31
2023/05/30 06:00:44;;;;;;;;;;;21.20;99.90;;;;;;2607034;47;20851;31
2023/05/30 06:03:24;;;;;;;9.40;2.50;;;21.30;99.90;;;;;;2602272;54;19961;31
2023/05/30 06:06:09;;;;;;;10.30;2.70;;;21.50;99.90;;;;;;2602967;54;20027;31
2023/05/30 06:08:49;;;;;;;10.20;2.83;;;21.70;99.90;;;;;;2620795;47;22413;31
2023/05/30 06:11:27;;;;;;;7.50;2.80;;;21.80;99.90;;;;;;2602940;54;20031;31
2023/05/30 06:14:05;;;;;;;8.35;3.00;;;21.90;99.90;;;;;;2621234;47;20081;31
2023/05/30 06:16:45;;;;;;;10.52;2.92;;;22.10;98.70;;;;;;2701488;39;21522;31
2023/05/30 06:19:26;;;;;;;9.63;3.20;;;22.30;99.20;;;;;;2603513;54;20038;31
2023/05/30 06:22:04;;;;;;;10.38;2.97;;;22.40;99.50;;;;;;2622332;46;20030;31
2023/05/30 06:27:40;;;;;;;10.02;2.22;;;22.50;97.40;;;;;;2604032;54;20081;31
2023/05/30 06:30:18;;;;;;;12.02;2.90;;;22.50;97.90;;;;;;2603823;54;20029;31
2023/05/30 06:32:59;;;;;;;7.97;2.30;;;22.70;96.90;;;;;;2603856;54;20884;31
2023/05/30 06:35:39;;;;;;;8.65;2.50;;;22.90;96.70;;;;;;2603814;54;21224;31
2023/05/30 06:38:16;;;;;;;4.78;2.28;;;23.00;96.50;;;;;;2702125;39;20367;31
2023/05/30 06:41:05;;;;;;;10.52;2.67;;;23.10;96.50;;;;;;2622152;46;20026;31
2023/05/30 06:43:46;;;;;;;16.33;2.85;;;23.30;95.60;;;;;;2622504;46;20153;31
2023/05/30 06:46:27;;;;;;;9.57;2.88;;;23.60;95.10;;;;;;2603444;54;20903;31
2023/05/30 06:49:03;;;;;;;13.23;2.73;;;23.50;94.70;;;;;;2603679;54;20038;31
2023/05/30 06:51:44;;;;;;;7.70;2.83;;;23.60;94.50;;;;;;2603462;54;20246;31
2023/05/30 06:54:24;;;;;;;8.23;2.33;;;23.70;93.30;;;;;;2603614;54;20030;31
2023/05/30 06:57:06;;;;;;;10.35;2.90;;;23.50;92.90;;;;;;2603446;54;20026;31
2023/05/30 06:59:43;;;;;;;8.10;2.30;;;23.60;92.70;;;;;;2603940;54;19934;31
2023/05/30 07:02:23;;;;;;;8.68;2.17;;;23.60;93.70;;;;;;2603607;54;20795;31
2023/05/30 07:07:52;;;;;;;6.35;2.25;;;23.90;93.10;;;;;;2702119;39;20505;31
2023/05/30 07:10:31;;;;;;;7.18;2.00;;;24.00;91.80;;;;;;2602716;54;20908;31
2023/05/30 07:13:13;;;;;;;7.43;1.90;;;24.20;92.40;;;;;;2603149;54;20030;31
2023/05/30 07:15:51;;;;;;;12.25;2.67;;;24.30;91.50;;;;;;2602407;54;20022;31
2023/05/30 07:18:27;;;;;;;17.00;3.13;;;24.40;91.10;;;;;;2603465;54;20091;31
2023/05/30 07:21:03;;;;;;;;;;;24.40;90.20;;;;;;2603598;54;20923;31
2023/05/30 07:23:42;;;;;;;13.73;2.10;;;24.40;91.60;;;;;;2603470;54;19935;31
2023/05/30 07:26:22;;;;;;;12.18;2.22;;;24.40;91.30;;;;;;2603470;54;20778;31
2023/05/30 07:29:00;;;;;;;9.18;2.08;;;24.30;91.00;;;;;;2608692;46;21739;31
2023/05/30 07:31:41;;;;;;;11.90;2.80;;;24.50;90.50;;;;;;2603409;54;20843;31
2023/05/30 07:34:19;;;;;;;7.50;2.77;;;24.50;90.40;;;;;;2602531;54;20096;31
2023/05/30 07:36:57;;;;;;;10.73;2.25;;;24.60;90.80;;;;;;2602757;54;20030;31
2023/05/30 07:39:41;;;;;;;8.40;2.50;;;24.70;90.50;;;;;;2603525;46;20934;31
2023/05/30 07:45:04;;;;;;;;;;;24.80;90.40;;;;;;2603630;54;20140;31
2023/05/30 07:47:45;;;;;;;7.53;2.40;;;25.10;88.10;;;;;;2622166;46;19934;31
2023/05/30 07:50:21;;;;;;;5.43;1.67;;;25.20;88.80;;;;;;2603572;54;20771;31
2023/05/30 07:52:59;;;;;;;6.22;2.15;;;25.40;87.80;;;;;;2603625;54;20023;31
2023/05/30 07:55:39;;;;;;;8.10;1.60;;;25.50;86.40;;;;;;2603550;54;20042;31
2023/05/30 07:58:23;;;;;;;6.97;1.52;;;25.60;85.50;;;;;;2603547;54;20026;31
2023/05/30 08:01:00;;;;;;;7.53;1.83;;;25.70;84.30;;;;;;2621709;46;20038;31
2023/05/30 08:03:42;;;;;;;8.38;2.63;;;25.80;83.00;;;;;;2602932;54;20080;31
2023/05/30 08:06:20;;;;;;;4.25;1.63;;;25.80;84.70;;;;;;2603304;54;20036;31
2023/05/30 08:08:57;;;;;;;9.20;2.35;;;25.70;83.30;;;;;;2603395;54;20023;31
2023/05/30 08:11:47;;;;;;;6.38;1.67;;;25.80;79.40;;;;;;2701718;39;21491;31
2023/05/30 08:14:24;;;;;;;6.13;1.95;;;25.70;79.20;;;;;;2603439;54;20026;31
2023/05/30 08:17:11;;;;;;;5.68;2.03;;;25.60;78.80;;;;;;2621947;46;20026;31
2023/05/30 08:19:47;;;;;;;6.05;1.92;;;25.60;79.90;;;;;;2603470;54;19941;31
2023/05/30 08:22:24;;;;;;;;;;;25.40;78.00;;;;;;2620041;46;20026;31
2023/05/30 08:25:10;;;;;;;7.13;1.98;;;25.40;79.80;;;;;;2603597;54;20760;31
2023/05/30 08:27:54;;;;;;;7.97;2.03;;;25.50;80.00;;;;;;2603328;54;20030;31
2023/05/30 08:30:34;;;;;;;6.40;2.00;;;25.60;80.60;;;;;;2621913;46;20023;31
2023/05/30 08:33:13;;;;;;;8.52;2.05;;;25.60;78.00;;;;;;2603288;54;20530;31
2023/05/30 08:35:51;;;;;;;7.43;1.98;;;25.70;78.00;;;;;;2603395;54;20898;31
2023/05/30 08:38:26;;;;;;;9.50;2.50;;;25.60;78.00;;;;;;2622044;46;20030;31
2023/05/30 08:41:03;;;;;;;5.37;2.00;;;25.60;79.00;;;;;;2719723;39;21485;31
2023/05/30 08:43:43;;;;;;;6.70;1.58;;;25.80;80.50;;;;;;2602425;54;20031;31
2023/05/30 08:46:20;;;;;;;11.10;2.30;;;26.00;78.20;;;;;;2603451;54;20037;31
2023/05/30 08:49:00;;;;;;;4.55;1.52;;;26.10;77.80;;;;;;2603461;54;20117;31
2023/05/30 08:51:36;;;;;;;7.22;2.10;;;26.30;78.20;;;;;;2603331;54;20030;31
2023/05/30 08:54:18;;;;;;;8.57;1.98;;;26.40;78.10;;;;;;2603018;54;20120;31
2023/05/30 08:57:03;;;;;;;7.75;1.95;;;26.40;75.90;;;;;;2603447;54;20112;31
2023/05/30 08:59:43;;;;;;;6.85;2.00;;;26.60;75.30;;;;;;2603459;54;20887;31
2023/05/30 09:02:24;;;;;;;6.72;2.00;;;26.70;75.10;;;;;;2602446;54;20037;31
2023/05/30 09:05:01;;;;;;;9.45;2.30;;;26.70;76.80;;;;;;2603122;54;20889;31
2023/05/30 09:07:38;;;;;;;7.68;1.90;;;26.90;73.30;;;;;;2621412;46;20033;31
2023/05/30 09:10:19;;;;;;;10.70;2.00;;;26.90;73.70;;;;;;2621951;46;20034;31
2023/05/30 09:13:15;;;;;;;7.85;1.88;;;26.90;72.90;;;;;;2621973;46;20027;31
2023/05/30 09:15:55;;;;;;;6.17;1.90;;;26.90;73.00;;;;;;2603260;54;20088;31
2023/05/30 09:18:32;;;;;;;8.63;1.75;;;26.80;73.40;;;;;;2603056;54;20886;31
2023/05/30 09:21:09;;;;;;;5.93;1.73;;;26.80;69.40;;;;;;2603358;54;20031;31
2023/05/30 09:23:47;;;;;;;6.25;1.85;;;26.70;67.50;;;;;;2603199;54;20875;31
2023/05/30 09:26:23;;;;;;;7.60;1.88;;;26.50;68.70;;;;;;2603027;54;20038;31
2023/05/30 09:29:00;;;;;;;;;;;26.50;68.20;;;;;;2621946;46;20037;31
2023/05/30 09:31:39;;;;;;;6.45;1.60;;;26.40;69.20;;;;;;2621597;46;19996;31
2023/05/30 09:34:20;;;;;;;6.78;1.60;;;26.40;68.30;;;;;;2603173;54;20027;31
2023/05/30 09:37:00;;;;;;;5.82;1.45;;;26.30;67.60;;;;;;2701711;39;20394;31
2023/05/30 09:39:36;;;;;;;6.40;1.70;;;26.40;67.50;;;;;;2605827;47;20026;31
2023/05/30 09:42:12;;;;;;;11.93;1.98;;;26.40;67.50;;;;;;2601920;54;20057;31
2023/05/30 09:44:54;;;;;;;;;;;26.30;68.60;;;;;;2602423;54;20093;31
2023/05/30 09:47:40;;;;;;;4.10;1.73;;;26.10;66.30;;;;;;2603818;47;19942;31
2023/05/30 09:50:20;;;;;;;5.05;1.70;;;26.10;70.40;;;;;;2602306;54;20149;31
2023/05/30 09:52:58;;;;;;;7.32;2.03;;;26.10;67.90;;;;;;2603355;54;20057;31
2023/05/30 09:55:35;;;;;;;6.65;2.15;;;26.10;66.00;;;;;;2710505;39;21578;31
2023/05/30 09:58:13;;;;;;;4.88;1.40;;;26.00;65.70;;;;;;2615973;46;20842;31
2023/05/30 10:00:53;;;;;;;11.18;2.17;;;26.00;65.70;;;;;;2702344;39;20393;31
2023/05/30 10:03:49;;;;;;;4.68;1.65;;;26.00;62.70;;;;;;2603902;54;20027;31
2023/05/30 10:06:30;;;;;;;7.85;1.80;;;26.10;64.00;;;;;;2702315;39;21627;31
2023/05/30 10:11:47;;;;;;;4.45;1.52;;;25.90;63.90;;;;;;2603923;54;20864;31
2023/05/30 10:14:28;;;;;;;5.82;1.95;;;26.00;62.80;;;;;;2603560;54;20030;31
2023/05/30 10:19:45;;;;;;;5.95;1.80;;;25.90;63.60;;;;;;2603061;54;20874;31
2023/05/30 10:22:24;;;;;;;4.32;2.00;;;25.90;63.30;;;;;;2603714;54;20108;31
2023/05/30 10:27:47;;;;;;;11.82;1.75;;;26.10;64.10;;;;;;2701849;39;21705;31
2023/05/30 10:30:29;;;;;;;6.93;1.63;;;26.00;63.50;;;;;;2621924;46;20034;31
2023/05/30 10:33:12;;;;;;;10.20;2.05;;;25.90;62.40;;;;;;2622513;46;20896;31
2023/05/30 10:35:56;;;;;;;5.80;1.30;;;26.00;63.20;;;;;;2702162;39;21622;31
2023/05/30 10:38:38;;;;;;;17.17;2.38;;;26.00;62.10;;;;;;2622217;46;20030;31
2023/05/30 10:41:24;;;;;;;4.75;1.45;;;26.00;61.50;;;;;;2702410;39;21592;31
2023/05/30 10:44:08;;;;;;;7.70;1.90;;;25.90;60.10;;;;;;2603663;54;20026;31
2023/05/30 10:49:23;;;;;;;4.40;1.30;;;25.70;62.20;;;;;;2603006;54;20029;31
2023/05/30 10:52:07;;;;;;;6.78;1.60;;;25.80;62.60;;;;;;2603471;54;20860;31
2023/05/30 10:57:31;;;;;;;5.10;1.50;;;25.70;62.70;;;;;;2603761;54;21230;31
2023/05/30 11:00:20;;;;;;;7.25;1.50;;;25.60;61.50;;;;;;2603629;54;20513;31
2023/05/30 11:03:00;;;;;;;4.40;1.50;;;25.60;63.40;;;;;;2702141;39;21585;31
2023/05/30 11:05:44;;;;;;;7.22;1.83;;;25.60;63.90;;;;;;2622119;47;20112;31
2023/05/30 11:08:31;;;;;;;11.90;2.00;;;25.60;63.50;;;;;;2603788;54;20023;31
2023/05/30 11:11:19;;;;;;;2.45;1.20;;;25.60;63.60;;;;;;2622230;46;20028;31
2023/05/30 11:14:03;;;;;;;5.30;1.30;;;25.60;62.30;;;;;;2603651;54;20022;31
2023/05/30 11:16:53;;;;;;;4.93;1.52;;;25.50;60.80;;;;;;2622524;46;20034;31
2023/05/30 11:19:42;;;;;;;7.55;1.40;;;25.60;61.90;;;;;;2622121;46;20033;31
2023/05/30 11:22:23;;;;;;;6.13;1.67;;;25.40;61.20;;;;;;2603638;54;20911;31
2023/05/30 11:28:46;;;;;;;8.13;1.75;;;25.20;59.90;;;;;;2612274;54;21098;31
2023/05/30 11:31:27;;;;;;;5.78;1.35;;;25.10;59.20;;;;;;2603681;54;20027;31
2023/05/30 11:36:44;;;;;;;5.07;1.70;;;25.00;58.80;;;;;;2603515;54;20042;31
2023/05/30 11:39:27;;;;;;;3.80;1.27;;;24.90;58.10;;;;;;2702090;39;20524;31
2023/05/30 11:42:07;;;;;;;5.47;1.57;;;24.80;58.00;;;;;;2603489;54;20026;31
2023/05/30 11:44:45;;;;;;;5.55;1.45;;;24.60;59.10;;;;;;2621359;46;21011;31
2023/05/30 11:47:24;;;;;;;6.30;1.88;;;24.60;59.70;;;;;;2623518;46;20097;31
2023/05/30 11:50:19;;;;;;;4.82;1.50;;;24.50;59.10;;;;;;2627018;46;20023;31
2023/05/30 11:53:08;;;;;;;;;;;24.40;59.20;;;;;;2702568;39;21094;31
2023/05/30 11:55:48;;;;;;;4.25;2.10;;;24.30;58.30;;;;;;2603302;54;20769;31
2023/05/30 11:58:24;;;;;;;11.65;2.50;;;24.20;59.20;;;;;;2621651;46;20888;31
2023/05/30 12:01:02;;;;;;;;;;;24.40;58.10;;;;;;2603716;54;20023;31
2023/05/30 12:03:45;;;;;;;4.40;1.90;;;24.40;60.30;;;;;;2603486;54;19934;31
2023/05/30 12:06:22;;;;;;;3.10;1.23;;;24.40;59.00;;;;;;2603386;54;20978;31
2023/05/30 12:09:05;;;;;;;4.67;1.40;;;24.40;59.80;;;;;;2716743;39;20924;31
2023/05/30 12:11:52;;;;;;;8.30;1.80;;;24.40;60.10;;;;;;2603459;54;20029;31
2023/05/30 12:17:07;;;;;;;14.85;1.95;;;24.30;61.20;;;;;;2603636;54;20235;31
2023/05/30 12:19:47;;;;;;;5.28;1.50;;;24.30;61.50;;;;;;2602492;54;20029;31
2023/05/30 12:22:30;;;;;;;4.90;1.40;;;24.20;62.60;;;;;;2603495;54;20137;31
2023/05/30 12:25:11;;;;;;;8.20;2.15;;;24.30;63.70;;;;;;2603537;54;20770;31
2023/05/30 12:27:47;;;;;;;5.68;1.90;;;24.20;61.90;;;;;;2702150;39;21003;31
2023/05/30 12:30:25;;;;;;;6.75;1.85;;;24.10;60.70;;;;;;2603287;54;21606;31
2023/05/30 12:33:16;;;;;;;9.65;2.17;;;24.00;63.40;;;;;;2621595;46;20034;31
2023/05/30 12:35:58;;;;;;;4.97;1.90;;;24.00;61.10;;;;;;2621551;46;20027;31
2023/05/30 12:38:37;;;;;;;5.05;1.60;;;24.00;62.50;;;;;;2603429;54;20030;31
2023/05/30 12:41:12;;;;;;;5.70;2.25;;;24.00;63.00;;;;;;2603154;54;20744;31
2023/05/30 12:43:47;;;;;;;13.15;4.40;;;24.00;64.20;;;;;;2602601;54;20023;31
2023/05/30 12:46:25;;;;;;;7.55;1.92;;;23.90;64.90;;;;;;2620634;46;20919;31
2023/05/30 12:49:04;;;;;;;4.18;1.35;;;24.00;63.70;;;;;;2602953;54;20042;31
2023/05/30 12:51:46;;;;;;;5.43;1.90;;;24.00;64.10;;;;;;2601792;54;19942;31
2023/05/30 12:54:28;;;;;;;5.85;1.70;;;24.00;64.80;;;;;;2602075;54;20732;31
2023/05/30 12:57:08;;;;;;;8.65;1.95;;;24.00;64.40;;;;;;2720045;39;21528;31
2023/05/30 12:59:45;;;;;;;6.55;1.80;;;23.90;64.70;;;;;;2602626;54;20754;31
2023/05/30 13:02:24;;;;;;;6.15;2.28;;;23.80;64.80;;;;;;2603295;54;20880;31
2023/05/30 13:05:01;;;;;;;6.32;1.92;;;23.80;64.10;;;;;;2603113;54;20042;31
2023/05/30 13:07:43;;;;;;;5.72;1.52;;;23.70;62.70;;;;;;2621185;46;20863;31
2023/05/30 13:10:24;;;;;;;9.20;2.00;;;23.60;64.90;;;;;;2603310;54;20023;31
2023/05/30 13:13:06;;;;;;;8.55;1.80;;;23.60;65.00;;;;;;2604629;46;20053;31
2023/05/30 13:15:46;;;;;;;6.60;1.40;;;23.60;64.20;;;;;;2603372;54;20042;31
2023/05/30 13:18:22;;;;;;;7.15;1.83;;;23.60;65.90;;;;;;2602320;54;20899;31
2023/05/30 13:21:00;;;;;;;5.00;1.90;;;23.60;66.80;;;;;;2603128;54;20897;31
2023/05/30 13:23:39;;;;;;;8.57;2.30;;;23.50;65.80;;;;;;2602604;54;20929;31
2023/05/30 13:26:20;;;;;;;8.98;2.15;;;23.50;67.00;;;;;;2621426;46;20102;31
2023/05/30 13:28:59;;;;;;;7.53;1.80;;;23.60;67.20;;;;;;2621725;47;20030;31
2023/05/30 13:31:42;;;;;;;5.68;1.85;;;23.50;65.40;;;;;;2603010;54;20034;31
2023/05/30 13:34:23;;;;;;;7.82;1.55;;;23.50;65.40;;;;;;2602990;54;20033;31
2023/05/30 13:37:01;;;;;;;5.10;1.75;;;23.40;65.30;;;;;;2621659;46;20114;31
2023/05/30 13:39:40;;;;;;;5.80;1.85;;;23.40;66.70;;;;;;2621630;47;20127;31
2023/05/30 13:42:21;;;;;;;7.97;2.00;;;23.40;67.40;;;;;;2701865;39;21031;31
2023/05/30 13:45:00;;;;;;;7.32;1.80;;;23.30;65.30;;;;;;2602224;54;20033;31
2023/05/30 13:47:35;;;;;;;4.88;1.70;;;23.20;66.60;;;;;;2602551;54;20875;31
2023/05/30 13:50:17;;;;;;;6.40;1.95;;;23.20;66.20;;;;;;2602990;54;20116;31
2023/05/30 13:52:53;;;;;;;5.77;1.30;;;23.30;65.70;;;;;;2621536;47;20322;31
2023/05/30 13:55:34;;;;;;;16.10;2.00;;;23.10;65.60;;;;;;2602336;54;20030;31
2023/05/30 13:58:12;;;;;;;5.22;1.95;;;23.10;64.90;;;;;;2602902;54;20126;31
2023/05/30 14:00:48;;;;;;;7.60;1.65;;;23.00;67.10;;;;;;2602389;54;20056;31
2023/05/30 14:03:33;;;;;;;6.80;2.10;;;22.90;67.30;;;;;;2603185;54;20883;31
2023/05/30 14:06:13;;;;;;;5.13;1.70;;;22.90;65.40;;;;;;2621463;47;20029;31
2023/05/30 14:08:49;;;;;;;27.65;3.05;;;22.90;65.70;;;;;;2603054;54;20026;31
2023/05/30 14:11:29;;;;;;;8.00;2.00;;;22.90;66.10;;;;;;2620114;47;20038;31
2023/05/30 14:14:05;;;;;;;4.70;1.65;;;22.90;70.70;;;;;;2602494;54;20023;31
2023/05/30 14:16:41;;;;;;;17.55;2.20;;;23.00;67.50;;;;;;2620778;47;20415;31
2023/05/30 14:19:16;;;;;;;7.57;2.10;;;23.00;66.50;;;;;;2602229;54;20113;31
2023/05/30 14:21:54;;;;;;;7.97;1.90;;;22.90;67.10;;;;;;2601102;54;20036;31
2023/05/30 14:24:29;;;;;;;3.38;1.58;;;22.90;66.20;;;;;;2601092;54;20061;31
2023/05/30 14:27:09;;;;;;;9.10;2.40;;;22.90;67.70;;;;;;2610644;39;20396;31
2023/05/30 14:29:44;;;;;;;7.20;1.88;;;22.90;66.70;;;;;;2604065;39;20309;31
2023/05/30 14:32:20;;;;;;;5.68;1.83;;;22.80;67.10;;;;;;2602084;54;20026;31
2023/05/30 14:34:54;;;;;;;12.27;2.33;;;22.70;66.20;;;;;;2620682;47;20927;31
2023/05/30 14:37:31;;;;;;;5.65;1.70;;;22.60;68.40;;;;;;2602637;54;20030;31
2023/05/30 14:40:07;;;;;;;9.70;1.75;;;22.60;67.30;;;;;;2603553;54;20073;31
2023/05/30 14:42:45;;;;;;;5.97;1.58;;;22.60;68.10;;;;;;2602841;54;20030;31
2023/05/30 14:45:21;;;;;;;7.07;2.00;;;22.60;66.70;;;;;;2621826;46;20026;31
2023/05/30 14:47:56;;;;;;;;;;;22.60;69.10;;;;;;2603137;54;20416;31
2023/05/30 14:50:32;;;;;;;8.27;2.10;;;22.60;67.40;;;;;;2620883;46;19941;31
2023/05/30 14:53:07;;;;;;;6.83;1.97;;;22.60;69.40;;;;;;2602998;54;19934;31
2023/05/30 14:55:42;;;;;;;10.03;2.10;;;22.60;66.90;;;;;;2619326;31;20429;31
2023/05/30 14:58:20;;;;;;;4.80;1.65;;;22.60;68.00;;;;;;2602296;54;20381;31
2023/05/30 15:00:55;;;;;;;9.10;2.17;;;22.60;68.70;;;;;;2603427;54;20136;31
2023/05/30 15:03:30;;;;;;;7.63;1.70;;;22.60;68.50;;;;;;2603576;54;20030;31
2023/05/30 15:06:07;;;;;;;5.78;2.00;;;22.60;68.20;;;;;;2603711;54;20022;31
2023/05/30 15:08:43;;;;;;;6.88;1.73;;;22.50;69.30;;;;;;2702280;39;21581;31
2023/05/30 15:11:19;;;;;;;4.88;1.38;;;22.50;68.00;;;;;;2603387;54;20542;31
2023/05/30 15:13:58;;;;;;;6.80;1.90;;;22.40;67.20;;;;;;2603887;54;20156;31
2023/05/30 15:16:33;;;;;;;6.97;2.15;;;22.40;69.00;;;;;;2603521;54;20136;31
2023/05/30 15:19:08;;;;;;;7.18;1.67;;;22.40;68.00;;;;;;2622108;46;20924;31